Time;durP1;ratioP1;P1;durP2;ratioP2;P2;SDS_P1;SDS_P2;PMS_P1;PMS_P2;Temp;Humidity;BMP_temperature;BMP_pressure;BME280_temperature;BME280_humidity;BME280_pressure;Samples;Min_cycle;Max_cycle;Signal;HPM_P1;HPM_P2
2023/07/06 00:02:40;;;;;;;1999.90;999.90;;;15.00;99.90;;;;;;6705907;88;20198;-77
2023/07/06 00:12:41;;;;;;;1999.90;999.90;;;14.70;99.90;;;;;;6694921;88;20217;-77
2023/07/06 00:22:41;;;;;;;1999.90;999.90;;;14.30;99.90;;;;;;6703406;88;20678;-77
2023/07/06 00:32:43;;;;;;;1999.90;999.90;;;14.20;99.90;;;;;;6720514;88;20717;-78
2023/07/06 00:42:44;;;;;;;1999.90;999.90;;;14.10;99.90;;;;;;6714309;88;20208;-77
2023/07/06 00:52:49;;;;;;;1999.90;999.90;;;14.00;99.90;;;;;;6712686;88;20279;-77
2023/07/06 01:02:52;;;;;;;1999.90;999.90;;;13.80;99.90;;;;;;6711626;88;20432;-77
2023/07/06 01:12:53;;;;;;;1999.90;999.90;;;13.70;99.90;;;;;;6704326;88;20219;-76
2023/07/06 01:23:10;;;;;;;1999.90;999.90;;;13.60;99.90;;;;;;6706275;88;20638;-76
2023/07/06 01:33:16;;;;;;;1999.90;999.90;;;13.60;99.90;;;;;;6711523;88;20282;-77
2023/07/06 01:43:16;;;;;;;1999.90;999.90;;;13.50;99.90;;;;;;6704227;88;20194;-77
2023/07/06 01:53:21;;;;;;;1999.90;999.90;;;13.40;99.90;;;;;;6699027;88;20191;-76
2023/07/06 02:03:24;;;;;;;1999.90;999.90;;;13.40;99.90;;;;;;6686190;88;20716;-77
2023/07/06 02:13:25;;;;;;;1999.90;999.90;;;13.30;99.90;;;;;;6626574;89;20746;-77
2023/07/06 02:23:25;;;;;;;1999.90;999.90;;;13.20;99.90;;;;;;6656822;88;20186;-76
2023/07/06 02:33:28;;;;;;;1999.90;999.90;;;13.20;99.90;;;;;;6705176;88;20324;-77
2023/07/06 02:43:29;;;;;;;1999.90;999.90;;;13.00;99.90;;;;;;6712997;88;20608;-77
2023/07/06 02:53:29;;;;;;;1999.90;999.90;;;12.80;99.90;;;;;;6717074;88;20241;-77
2023/07/06 03:03:30;;;;;;;1999.90;999.90;;;12.70;99.90;;;;;;6712552;88;20319;-77
2023/07/06 03:13:31;;;;;;;1999.90;999.90;;;12.70;99.90;;;;;;6709064;88;20235;-77
2023/07/06 03:23:31;;;;;;;1999.90;999.90;;;12.70;99.90;;;;;;6721236;88;20210;-77
2023/07/06 03:33:32;;;;;;;1999.90;999.90;;;12.60;99.90;;;;;;6718436;88;20725;-77
2023/07/06 03:43:33;;;;;;;1999.90;999.90;;;12.50;99.90;;;;;;6706211;88;20599;-77
2023/07/06 03:53:37;;;;;;;1999.90;999.90;;;12.60;99.90;;;;;;6713544;88;20198;-77
2023/07/06 04:03:37;;;;;;;1999.90;999.90;;;12.50;99.90;;;;;;6693184;88;20204;-77
2023/07/06 04:13:40;;;;;;;1999.90;999.90;;;12.60;99.90;;;;;;6705830;88;20191;-77
2023/07/06 04:23:41;;;;;;;1999.90;999.90;;;12.70;99.90;;;;;;6684669;77;20199;-77
2023/07/06 04:33:43;;;;;;;1999.90;999.90;;;12.70;99.90;;;;;;6709251;88;20235;-77
2023/07/06 04:43:44;;;;;;;1999.90;999.90;;;12.90;99.90;;;;;;6710084;88;20651;-77
2023/07/06 04:53:45;;;;;;;1999.90;999.90;;;13.10;99.90;;;;;;6712132;88;20630;-77
2023/07/06 05:03:46;;;;;;;1999.90;999.90;;;13.20;99.90;;;;;;6706440;88;20182;-76
2023/07/06 05:13:46;;;;;;;1999.90;999.90;;;13.40;99.90;;;;;;6712703;88;20178;-77
2023/07/06 05:23:47;;;;;;;1999.90;999.90;;;13.50;99.90;;;;;;6708752;88;20185;-77
2023/07/06 05:33:48;;;;;;;1999.90;999.90;;;13.70;99.90;;;;;;6708813;88;20181;-77
2023/07/06 05:43:48;;;;;;;1999.90;999.90;;;13.90;99.90;;;;;;6710648;88;20700;-77
2023/07/06 05:53:49;;;;;;;1999.90;999.90;;;14.10;99.90;;;;;;6705871;88;20290;-77
2023/07/06 06:03:49;;;;;;;1999.90;999.90;;;14.30;99.90;;;;;;6714384;88;20206;-77
2023/07/06 06:13:50;;;;;;;1999.90;999.90;;;15.00;99.90;;;;;;6728489;88;20220;-77
2023/07/06 06:23:50;;;;;;;1999.90;999.90;;;16.00;99.90;;;;;;6710016;88;20295;-77
2023/07/06 06:33:51;;;;;;;1999.90;999.90;;;16.80;99.90;;;;;;6708987;88;20224;-79
2023/07/06 06:43:51;;;;;;;1999.90;999.90;;;17.40;99.90;;;;;;6733461;88;20663;-80
2023/07/06 06:53:53;;;;;;;1999.90;999.90;;;18.30;99.90;;;;;;6714418;88;20202;-79
2023/07/06 07:03:53;;;;;;;1999.90;999.90;;;19.10;99.90;;;;;;6708136;88;20224;-78
2023/07/06 07:13:54;;;;;;;1999.90;999.90;;;19.40;99.90;;;;;;6730937;88;20364;-78
2023/07/06 07:23:55;;;;;;;1999.90;999.90;;;20.00;99.90;;;;;;6727002;88;20212;-78
2023/07/06 07:33:55;;;;;;;1999.90;999.90;;;20.90;99.20;;;;;;6716798;88;20182;-75
2023/07/06 07:44:00;;;;;;;1999.90;999.90;;;21.20;97.70;;;;;;6713834;88;20189;-74
2023/07/06 07:54:00;;;;;;;1999.90;999.90;;;21.40;97.50;;;;;;6719316;88;20747;-76
2023/07/06 08:04:02;;;;;;;1999.90;999.90;;;22.00;96.70;;;;;;6722372;88;20352;-76
2023/07/06 08:14:07;;;;;;;1999.90;999.90;;;22.60;95.30;;;;;;6719173;88;20206;-76
2023/07/06 08:24:07;;;;;;;1999.90;999.90;;;23.00;94.60;;;;;;6722465;88;20246;-76
2023/07/06 08:34:08;;;;;;;1999.90;999.90;;;22.40;93.60;;;;;;6714412;88;20214;-76
2023/07/06 08:44:11;;;;;;;1999.90;999.90;;;23.80;91.80;;;;;;6724192;88;20205;-76
2023/07/06 08:54:22;;;;;;;;;;;23.50;90.70;;;;;;6720702;88;20208;-75
2023/07/06 09:04:24;;;;;;;1999.90;999.90;;;22.70;91.50;;;;;;6717867;88;20066;-76
2023/07/06 09:14:28;;;;;;;1999.90;999.90;;;24.40;90.50;;;;;;6719521;88;20295;-76
2023/07/06 09:24:33;;;;;;;1999.90;999.90;;;24.60;87.30;;;;;;6719409;88;20341;-76
2023/07/06 09:34:34;;;;;;;1999.90;999.90;;;25.60;84.10;;;;;;6721862;88;20282;-76
2023/07/06 09:44:35;;;;;;;1999.90;999.90;;;26.20;81.10;;;;;;6716345;88;20185;-75
2023/07/06 09:55:13;;;;;;;1999.90;999.90;;;25.30;79.90;;;;;;6725180;88;20202;-75
2023/07/06 10:05:34;;;;;;;1999.90;999.90;;;27.10;80.10;;;;;;6723973;88;20265;-76
2023/07/06 10:25:57;;;;;;;1999.90;999.90;;;26.70;76.80;;;;;;6711269;88;20236;-79
2023/07/06 10:36:05;;;;;;;1999.90;999.90;;;25.30;78.10;;;;;;6694887;88;20190;-80
2023/07/06 10:46:32;;;;;;;1999.90;999.90;;;27.90;75.00;;;;;;6701634;88;20720;-79
2023/07/06 10:56:46;;;;;;;1999.90;999.90;;;25.80;73.70;;;;;;6703740;88;20323;-80
2023/07/06 11:06:53;;;;;;;1999.90;999.90;;;25.10;74.30;;;;;;6701016;88;20365;-80
2023/07/06 11:16:57;;;;;;;1999.90;999.90;;;25.60;76.00;;;;;;6706396;88;20198;-80
2023/07/06 11:27:22;;;;;;;1999.90;999.90;;;28.20;73.10;;;;;;6713926;88;20717;-80
2023/07/06 11:37:47;;;;;;;1999.90;999.90;;;29.20;70.10;;;;;;6702357;88;20191;-79
2023/07/06 11:48:03;;;;;;;1999.90;999.90;;;27.70;70.20;;;;;;6690594;88;20211;-79
2023/07/06 11:58:31;;;;;;;1999.90;999.90;;;29.30;69.60;;;;;;6701616;88;20213;-79
2023/07/06 12:08:37;;;;;;;1999.90;999.90;;;29.40;69.60;;;;;;6700684;88;20210;-79
2023/07/06 12:18:39;;;;;;;1999.90;999.90;;;28.40;64.90;;;;;;6704767;88;20328;-79
2023/07/06 12:28:44;;;;;;;1999.90;999.90;;;29.40;67.50;;;;;;6704082;88;20222;-81
2023/07/06 12:38:47;;;;;;;1999.90;999.90;;;28.10;65.60;;;;;;6701870;88;20204;-80
2023/07/06 12:48:51;;;;;;;1999.90;999.90;;;27.80;65.40;;;;;;6705468;88;20183;-79
2023/07/06 12:58:59;;;;;;;1999.90;999.90;;;28.10;65.70;;;;;;6703458;88;20301;-79
2023/07/06 13:09:01;;;;;;;1999.90;999.90;;;27.90;66.30;;;;;;6706002;88;20385;-79
2023/07/06 13:19:01;;;;;;;1999.90;999.90;;;29.00;65.20;;;;;;6699698;88;20190;-79
2023/07/06 13:29:02;;;;;;;1999.90;999.90;;;28.20;65.00;;;;;;6699964;88;20530;-80
2023/07/06 13:39:06;;;;;;;1999.90;999.90;;;28.50;66.60;;;;;;6715786;88;20291;-81
2023/07/06 13:49:07;;;;;;;1999.90;999.90;;;28.40;65.80;;;;;;6709840;88;20229;-80
2023/07/06 13:59:08;;;;;;;1999.90;999.90;;;27.70;65.60;;;;;;6693427;88;20721;-80
2023/07/06 14:09:08;;;;;;;1999.90;999.90;;;28.60;65.90;;;;;;6689352;88;20640;-79
2023/07/06 14:19:10;;;;;;;1999.90;999.90;;;29.50;65.00;;;;;;6701915;88;20205;-80
2023/07/06 14:29:11;;;;;;;1999.90;999.90;;;29.60;64.70;;;;;;6658291;89;20198;-79
2023/07/06 14:39:12;;;;;;;1999.90;999.90;;;29.70;66.30;;;;;;6702382;88;20190;-80
2023/07/06 14:49:13;;;;;;;1999.90;999.90;;;29.30;64.80;;;;;;6700719;88;20194;-77
2023/07/06 14:59:13;;;;;;;1999.90;999.90;;;29.70;63.90;;;;;;6695784;88;20175;-79
2023/07/06 15:09:14;;;;;;;1999.90;999.90;;;30.10;63.20;;;;;;6700489;88;20187;-81
2023/07/06 15:19:14;;;;;;;1999.90;999.90;;;28.50;63.90;;;;;;6695588;88;20218;-80
2023/07/06 15:29:15;;;;;;;1999.90;999.90;;;28.80;63.60;;;;;;6689931;89;20195;-80
2023/07/06 15:39:16;;;;;;;1999.90;999.90;;;29.20;63.80;;;;;;6680786;89;20205;-80
2023/07/06 15:49:16;;;;;;;1999.90;999.90;;;29.10;64.20;;;;;;6684694;88;20257;-79
2023/07/06 15:59:17;;;;;;;1999.90;999.90;;;29.10;64.50;;;;;;6688720;88;20190;-78
2023/07/06 16:09:17;;;;;;;1999.90;999.90;;;28.80;65.20;;;;;;6691295;88;20597;-79
2023/07/06 16:19:18;;;;;;;1999.90;999.90;;;28.40;66.00;;;;;;6694195;88;20195;-77
2023/07/06 16:29:18;;;;;;;1999.90;999.90;;;29.50;64.90;;;;;;6687826;88;20183;-77
2023/07/06 16:39:19;;;;;;;1999.90;999.90;;;28.60;66.20;;;;;;6690622;88;20360;-77
2023/07/06 16:49:20;;;;;;;1999.90;999.90;;;27.70;66.80;;;;;;6688216;88;20739;-77
2023/07/06 16:59:20;;;;;;;1999.90;999.90;;;27.80;66.80;;;;;;6692875;88;20288;-77
2023/07/06 17:09:21;;;;;;;1999.90;999.90;;;27.50;67.30;;;;;;6696717;88;20339;-78
2023/07/06 17:19:21;;;;;;;1999.90;999.90;;;27.50;66.80;;;;;;6696188;88;20187;-78
2023/07/06 17:29:21;;;;;;;1999.90;999.90;;;27.60;67.40;;;;;;6691308;88;20196;-77
2023/07/06 17:39:22;;;;;;;1999.90;999.90;;;26.90;67.60;;;;;;6691499;88;20219;-77
2023/07/06 17:49:23;;;;;;;1999.90;999.90;;;26.60;67.60;;;;;;6690264;88;20209;-78
2023/07/06 17:59:23;;;;;;;1999.90;999.90;;;25.70;68.70;;;;;;6691043;88;20183;-79
2023/07/06 18:09:26;;;;;;;1999.90;999.90;;;25.20;69.70;;;;;;6701673;88;20191;-78
2023/07/06 18:19:28;;;;;;;1999.90;999.90;;;24.70;71.10;;;;;;6678410;88;20185;-78
2023/07/06 18:29:29;;;;;;;1999.90;999.90;;;24.70;71.10;;;;;;6688716;88;20235;-79
2023/07/06 18:39:33;;;;;;;1999.90;999.90;;;25.00;70.80;;;;;;6689183;88;20272;-79
2023/07/06 18:49:34;;;;;;;1999.90;999.90;;;24.90;71.00;;;;;;6691474;88;20215;-78
2023/07/06 18:59:36;;;;;;;1999.90;999.90;;;24.40;72.30;;;;;;6689847;88;20202;-79
2023/07/06 19:09:37;;;;;;;1999.90;999.90;;;23.90;73.20;;;;;;6688007;88;20183;-79
2023/07/06 19:19:38;;;;;;;1999.90;999.90;;;23.50;74.70;;;;;;6694314;88;20241;-79
2023/07/06 19:29:38;;;;;;;1999.90;999.90;;;23.20;76.70;;;;;;6695370;88;20205;-79
2023/07/06 19:39:41;;;;;;;1999.90;999.90;;;22.90;77.50;;;;;;6688899;88;20207;-78
2023/07/06 19:49:43;;;;;;;1999.90;999.90;;;22.50;78.80;;;;;;6677155;88;20186;-77
2023/07/06 19:59:43;;;;;;;1999.90;999.90;;;22.20;79.70;;;;;;6681009;88;20682;-77
2023/07/06 20:09:44;;;;;;;1999.90;999.90;;;21.70;81.50;;;;;;6685720;88;20384;-77
2023/07/06 20:19:45;;;;;;;1999.90;999.90;;;21.40;82.10;;;;;;6684856;88;20213;-77
2023/07/06 20:29:48;;;;;;;1999.90;999.90;;;21.20;84.00;;;;;;6690313;88;20231;-78
2023/07/06 20:39:50;;;;;;;1999.90;999.90;;;20.80;85.90;;;;;;6684807;88;20195;-78
2023/07/06 20:49:52;;;;;;;1999.90;999.90;;;20.30;87.00;;;;;;6687922;88;20197;-77
2023/07/06 20:59:53;;;;;;;1999.90;999.90;;;20.00;89.20;;;;;;6688343;88;20186;-78
2023/07/06 21:09:53;;;;;;;1999.90;999.90;;;19.80;91.60;;;;;;6692319;88;20292;-77
2023/07/06 21:19:54;;;;;;;1999.90;999.90;;;19.60;93.90;;;;;;6710760;88;20212;-79
2023/07/06 21:29:54;;;;;;;1999.90;999.90;;;19.30;97.00;;;;;;6685866;88;20265;-79
2023/07/06 21:39:55;;;;;;;1999.90;999.90;;;19.10;99.80;;;;;;6691956;88;20183;-79
2023/07/06 21:49:55;;;;;;;1999.90;999.90;;;19.00;99.90;;;;;;6694919;88;20182;-79
2023/07/06 21:59:56;;;;;;;1999.90;999.90;;;18.70;99.90;;;;;;6706860;88;20704;-79
2023/07/06 22:09:56;;;;;;;1999.90;999.90;;;18.40;99.90;;;;;;6697539;88;20215;-79
2023/07/06 22:19:57;;;;;;;1999.90;999.90;;;18.20;99.90;;;;;;6707706;77;20190;-75
2023/07/06 22:29:57;;;;;;;1999.90;999.90;;;18.00;99.90;;;;;;6718982;88;20190;-75
2023/07/06 22:39:58;;;;;;;1999.90;999.90;;;17.80;99.90;;;;;;6700724;88;20185;-74
2023/07/06 22:49:59;;;;;;;1999.90;999.90;;;17.60;99.90;;;;;;6711966;88;20189;-75
2023/07/06 23:00:00;;;;;;;1999.90;999.90;;;17.30;99.90;;;;;;6715152;88;20244;-75
2023/07/06 23:10:01;;;;;;;1999.90;999.90;;;17.00;99.90;;;;;;6720188;88;20202;-75
2023/07/06 23:20:04;;;;;;;1999.90;999.90;;;16.70;99.90;;;;;;6707977;88;20257;-74
2023/07/06 23:30:06;;;;;;;1999.90;999.90;;;16.80;99.90;;;;;;6710803;88;20558;-75
2023/07/06 23:40:09;;;;;;;1999.90;999.90;;;16.60;99.90;;;;;;6708588;88;20224;-74
2023/07/06 23:50:10;;;;;;;1999.90;999.90;;;16.50;99.90;;;;;;6699933;88;20201;-74
